Time;durP1;ratioP1;P1;durP2;ratioP2;P2;SDS_P1;SDS_P2;PMS_P1;PMS_P2;Temp;Humidity;BMP_temperature;BMP_pressure;BME280_temperature;BME280_humidity;BME280_pressure;Samples;Min_cycle;Max_cycle;Signal;HPM_P1;HPM_P2
2024/04/02 00:00:54;;;;;;;8.32;2.60;;;;;;;7.09;100.00;100061.75;5044292;28;20029;-78
2024/04/02 00:03:19;;;;;;;6.82;2.60;;;;;;;7.13;100.00;100060.91;5042255;28;20049;-78
2024/04/02 00:05:44;;;;;;;7.38;2.50;;;;;;;7.07;100.00;100060.88;5042625;28;20036;-65
2024/04/02 00:08:10;;;;;;;6.55;2.60;;;;;;;7.06;100.00;100060.00;5043230;28;20037;-64
2024/04/02 00:10:37;;;;;;;6.90;2.60;;;;;;;7.00;100.00;100065.19;5042014;28;20053;-65
2024/04/02 00:13:03;;;;;;;7.15;2.60;;;;;;;7.00;100.00;100059.94;5044530;28;20024;-64
2024/04/02 00:15:29;;;;;;;7.82;2.65;;;;;;;6.98;100.00;100064.31;5040917;28;20113;-64
2024/04/02 00:17:54;;;;;;;7.43;2.53;;;;;;;6.98;100.00;100062.56;5044079;28;20053;-64
2024/04/02 00:20:22;;;;;;;9.15;2.70;;;;;;;6.99;100.00;100060.84;5042060;28;20025;-64
2024/04/02 00:22:47;;;;;;;8.95;2.75;;;;;;;6.94;100.00;100060.78;5042806;28;20063;-63
2024/04/02 00:25:13;;;;;;;8.57;2.75;;;;;;;6.96;100.00;100058.16;5042657;28;20357;-64
2024/04/02 00:27:38;;;;;;;8.68;2.75;;;;;;;6.92;100.00;100062.53;5041610;28;20022;-64
2024/04/02 00:30:04;;;;;;;8.98;2.80;;;;;;;7.02;100.00;100063.47;5043848;28;20124;-64
2024/04/02 00:32:30;;;;;;;8.80;2.67;;;;;;;7.09;100.00;100069.63;5041111;28;20037;-68
2024/04/02 00:34:56;;;;;;;7.15;2.70;;;;;;;7.18;100.00;100074.97;5044187;28;20032;-65
2024/04/02 00:37:21;;;;;;;8.50;2.60;;;;;;;7.21;100.00;100079.34;5041490;28;20468;-64
2024/04/02 00:39:47;;;;;;;8.25;2.60;;;;;;;7.19;100.00;100070.56;5042793;28;20029;-64
2024/04/02 00:42:13;;;;;;;9.35;2.70;;;;;;;7.19;100.00;100076.69;5042545;28;20029;-64
2024/04/02 00:44:38;;;;;;;8.73;2.60;;;;;;;7.18;100.00;100069.72;5040361;28;20045;-65
2024/04/02 00:47:05;;;;;;;7.40;2.40;;;;;;;7.23;100.00;100078.47;5042542;28;20028;-64
2024/04/02 00:49:32;;;;;;;6.93;2.50;;;;;;;7.20;100.00;100088.13;5040646;28;20029;-65
2024/04/02 00:51:58;;;;;;;9.38;2.60;;;;;;;7.20;100.00;100083.72;5044414;28;20037;-66
2024/04/02 00:54:23;;;;;;;9.52;2.55;;;;;;;7.17;100.00;100083.72;5041025;28;20076;-65
2024/04/02 00:56:48;;;;;;;9.35;2.53;;;;;;;7.20;100.00;100083.72;5042745;28;20033;-66
2024/04/02 00:59:14;;;;;;;8.15;2.50;;;;;;;7.20;100.00;100089.00;5041187;28;20094;-66
2024/04/02 01:01:39;;;;;;;7.53;2.55;;;;;;;7.20;100.00;100089.00;5041500;28;20060;-66
2024/04/02 01:04:06;;;;;;;5.53;2.53;;;;;;;7.21;100.00;100097.75;5043503;28;20037;-64
2024/04/02 01:06:31;;;;;;;10.18;2.70;;;;;;;7.26;100.00;100098.66;5040556;28;20104;-64
2024/04/02 01:08:57;;;;;;;9.68;2.80;;;;;;;7.23;100.00;100101.28;5042636;28;20548;-64
2024/04/02 01:11:24;;;;;;;11.18;2.75;;;;;;;7.16;100.00;100095.09;5039740;28;20108;-67
2024/04/02 01:13:51;;;;;;;10.57;2.72;;;;;;;7.16;100.00;100108.22;5042917;28;20053;-71
2024/04/02 01:16:19;;;;;;;8.70;2.72;;;;;;;7.07;100.00;100102.94;5041998;28;20029;-72
2024/04/02 01:18:45;;;;;;;9.52;2.85;;;;;;;7.11;100.00;100104.72;5042039;28;20057;-76
2024/04/02 01:21:11;;;;;;;8.43;2.60;;;;;;;7.11;100.00;100104.72;5043125;28;20025;-70
2024/04/02 01:23:37;;;;;;;8.60;2.70;;;;;;;7.06;100.00;100103.78;5041105;28;20026;-67
2024/04/02 01:26:02;;;;;;;11.10;2.90;;;;;;;7.11;100.00;100105.56;5043925;28;20032;-64
2024/04/02 01:28:27;;;;;;;10.07;2.70;;;;;;;6.96;100.00;100109.00;5040757;28;20026;-64
2024/04/02 01:30:53;;;;;;;9.60;2.78;;;;;;;6.93;100.00;100110.69;5043058;28;20077;-64
2024/04/02 01:33:18;;;;;;;9.80;2.80;;;;;;;6.92;100.00;100119.47;5041705;28;20036;-65
2024/04/02 01:35:43;;;;;;;8.45;2.90;;;;;;;7.00;100.00;100116.88;5041778;28;20029;-64
2024/04/02 01:38:08;;;;;;;11.75;2.83;;;;;;;7.00;100.00;100130.03;5043053;28;20098;-64
2024/04/02 01:40:34;;;;;;;10.18;2.80;;;;;;;7.00;100.00;100125.66;5044031;28;20117;-65
2024/04/02 01:42:59;;;;;;;10.52;2.90;;;;;;;6.98;100.00;100123.00;5047146;28;20123;-66
2024/04/02 01:45:24;;;;;;;9.40;2.70;;;;;;;6.99;100.00;100121.28;5041706;28;20435;-67
2024/04/02 01:47:50;;;;;;;10.75;2.90;;;;;;;7.06;100.00;100122.19;5044839;28;20021;-67
2024/04/02 01:50:15;;;;;;;9.18;2.80;;;;;;;7.04;100.00;100122.16;5045108;28;20037;-66
2024/04/02 01:52:40;;;;;;;10.82;2.90;;;;;;;7.07;100.00;100123.94;5046133;28;20049;-65
2024/04/02 01:55:06;;;;;;;7.88;2.78;;;;;;;7.10;100.00;100116.94;5044125;28;20026;-65
2024/04/02 01:57:31;;;;;;;10.18;2.80;;;;;;;7.12;100.00;100122.22;5046882;28;20025;-65
2024/04/02 01:59:56;;;;;;;11.07;2.92;;;;;;;7.09;100.00;100112.59;5043422;28;20548;-64
2024/04/02 02:02:22;;;;;;;8.60;2.78;;;;;;;7.12;100.00;100114.34;5045769;28;20077;-65
2024/04/02 02:04:47;;;;;;;10.60;3.10;;;;;;;7.12;100.00;100122.22;5044702;28;20487;-64
2024/04/02 02:07:12;;;;;;;10.05;2.70;;;;;;;7.12;100.00;100116.97;5044636;28;20032;-64
2024/04/02 02:09:38;;;;;;;10.30;2.90;;;;;;;7.12;100.00;100127.47;5046363;28;20502;-64
2024/04/02 02:12:03;;;;;;;10.88;3.03;;;;;;;7.09;100.00;100125.72;5043106;28;20030;-65
2024/04/02 02:14:28;;;;;;;9.52;2.92;;;;;;;7.06;100.00;100120.44;5039230;28;20030;-65
2024/04/02 02:16:54;;;;;;;10.98;3.00;;;;;;;7.04;100.00;100126.56;5046079;28;20112;-64
2024/04/02 02:19:19;;;;;;;10.38;2.70;;;;;;;7.01;100.00;100137.91;5044097;28;20491;-66
2024/04/02 02:21:49;;;;;;;12.40;2.85;;;;;;;7.05;100.00;100133.56;5044666;28;20491;-64
2024/04/02 02:24:14;;;;;;;8.60;2.80;;;;;;;6.97;100.00;100144.91;5044785;28;20025;-64
2024/04/02 02:26:39;;;;;;;10.38;2.90;;;;;;;6.93;100.00;100140.50;5042346;28;20368;-64
2024/04/02 02:29:05;;;;;;;10.02;3.05;;;;;;;7.04;100.00;100143.19;5046220;28;20423;-65
2024/04/02 02:31:32;;;;;;;7.70;2.90;;;;;;;7.01;100.00;100142.31;5042989;28;20476;-64
2024/04/02 02:33:58;;;;;;;9.73;2.92;;;;;;;6.96;100.00;100143.16;5046014;28;20036;-65
2024/04/02 02:36:23;;;;;;;12.50;3.10;;;;;;;6.87;100.00;100140.44;5043805;28;20034;-64
2024/04/02 02:38:48;;;;;;;11.23;3.20;;;;;;;6.86;100.00;100151.81;5044615;28;20029;-66
2024/04/02 02:41:14;;;;;;;10.50;3.05;;;;;;;6.80;100.00;100146.50;5044446;28;20116;-65
2024/04/02 02:43:39;;;;;;;12.70;3.00;;;;;;;6.80;100.00;100157.91;5043583;28;20120;-65
2024/04/02 02:46:04;;;;;;;9.20;2.85;;;;;;;6.82;100.00;100152.66;5045990;28;20028;-65
2024/04/02 02:48:30;;;;;;;12.27;3.03;;;;;;;6.82;100.00;100157.91;5042371;28;20036;-65
2024/04/02 02:50:55;;;;;;;11.65;2.95;;;;;;;6.78;100.00;100159.63;5044526;28;20017;-64
2024/04/02 02:53:21;;;;;;;8.18;2.90;;;;;;;6.76;100.00;100160.50;5043506;28;20033;-65
2024/04/02 02:55:58;;;;;;;9.68;2.90;;;;;;;6.78;100.00;100164.88;5044046;28;20384;-64
2024/04/02 02:58:23;;;;;;;10.77;2.80;;;;;;;6.76;100.00;100163.13;5042032;28;20036;-66
2024/04/02 03:00:48;;;;;;;10.27;3.10;;;;;;;6.75;100.00;100163.97;5044469;28;20029;-64
2024/04/02 03:03:14;;;;;;;9.65;2.80;;;;;;;6.76;100.00;100165.75;5042692;28;20052;-64
2024/04/02 03:05:40;;;;;;;13.82;3.13;;;;;;;6.72;100.00;100163.97;5041789;28;20022;-65
2024/04/02 03:08:06;;;;;;;10.43;2.85;;;;;;;6.72;100.00;100166.59;5045157;28;20029;-65
2024/04/02 03:10:31;;;;;;;9.48;2.90;;;;;;;6.63;100.00;100165.63;5042059;28;20033;-64
2024/04/02 03:12:57;;;;;;;11.15;3.05;;;;;;;6.62;100.00;100173.47;5045190;28;20033;-68
2024/04/02 03:15:23;;;;;;;12.43;2.97;;;;;;;6.56;100.00;100169.06;5042724;28;20483;-64
2024/04/02 03:17:48;;;;;;;9.00;2.85;;;;;;;6.54;100.00;100168.16;5044058;28;20040;-65
2024/04/02 03:20:13;;;;;;;11.73;3.10;;;;;;;6.56;100.00;100174.31;5044481;28;20036;-65
2024/04/02 03:22:39;;;;;;;14.68;3.17;;;;;;;6.54;100.00;100176.03;5042689;28;20025;-66
2024/04/02 03:25:04;;;;;;;10.02;2.80;;;;;;;6.52;100.00;100185.63;5045394;28;20476;-66
2024/04/02 03:27:30;;;;;;;9.35;3.00;;;;;;;6.51;100.00;100186.53;5041707;28;20052;-64
2024/04/02 03:29:56;;;;;;;11.98;2.90;;;;;;;6.52;100.00;100183.00;5044786;28;20122;-66
2024/04/02 03:32:21;;;;;;;11.02;3.10;;;;;;;6.44;100.00;100188.19;5041687;28;20033;-66
2024/04/02 03:34:46;;;;;;;10.98;2.90;;;;;;;6.49;100.00;100184.75;5043309;28;20091;-64
2024/04/02 03:37:12;;;;;;;9.18;2.78;;;;;;;6.51;100.00;100188.25;5044016;28;20029;-66
2024/04/02 03:39:37;;;;;;;11.15;3.00;;;;;;;6.53;100.00;100187.41;5042143;28;20079;-64
2024/04/02 03:42:02;;;;;;;12.50;3.10;;;;;;;6.60;100.00;100191.84;5044872;28;20033;-65
2024/04/02 03:44:28;;;;;;;11.45;2.92;;;;;;;6.58;100.00;100190.97;5041709;28;20366;-64
2024/04/02 03:46:55;;;;;;;9.85;2.78;;;;;;;6.60;100.00;100191.00;5041849;28;20419;-65
2024/04/02 03:49:21;;;;;;;12.68;3.08;;;;;;;6.60;100.00;100207.63;5043523;28;20040;-65
2024/04/02 03:51:47;;;;;;;9.63;2.83;;;;;;;6.57;100.00;100198.84;5043048;28;20029;-65
2024/04/02 03:54:13;;;;;;;10.85;2.72;;;;;;;6.55;100.00;100208.44;5042794;28;20428;-66
2024/04/02 03:56:38;;;;;;;12.40;3.03;;;;;;;6.53;100.00;100205.78;5042796;28;20032;-69
2024/04/02 03:59:03;;;;;;;13.23;2.90;;;;;;;6.56;100.00;100216.31;5041230;28;20033;-68
2024/04/02 04:01:29;;;;;;;9.77;2.90;;;;;;;6.59;100.00;100210.22;5043719;28;20033;-66
2024/04/02 04:03:54;;;;;;;10.52;3.15;;;;;;;6.62;100.00;100215.50;5040476;28;20480;-68
2024/04/02 04:06:19;;;;;;;9.35;2.92;;;;;;;6.53;100.00;100218.91;5041906;28;20710;-68
2024/04/02 04:08:45;;;;;;;12.85;3.00;;;;;;;6.55;100.00;100219.84;5043167;28;20041;-64
2024/04/02 04:11:10;;;;;;;11.73;3.05;;;;;;;6.54;100.00;100217.16;5041712;28;20057;-64
2024/04/02 04:13:35;;;;;;;12.85;3.10;;;;;;;6.54;100.00;100223.31;5044404;28;20419;-66
2024/04/02 04:16:01;;;;;;;11.30;2.88;;;;;;;6.61;100.00;100225.16;5040967;28;20025;-65
2024/04/02 04:18:27;;;;;;;12.65;3.10;;;;;;;6.69;100.00;100232.22;5044115;28;20368;-66
2024/04/02 04:20:58;;;;;;;11.57;3.00;;;;;;;6.83;100.00;100233.25;5041954;28;20033;-66
2024/04/02 04:23:24;;;;;;;10.95;3.03;;;;;;;6.88;100.00;100239.41;5043331;28;20100;-64
2024/04/02 04:25:56;;;;;;;13.18;3.05;;;;;;;6.90;100.00;100237.69;5041007;28;20032;-65
2024/04/02 04:28:23;;;;;;;9.40;2.90;;;;;;;6.91;100.00;100242.06;5043171;28;20112;-65
2024/04/02 04:30:56;;;;;;;11.50;3.00;;;;;;;6.91;100.00;100244.69;5042436;28;20033;-67
2024/04/02 04:33:22;;;;;;;10.73;2.90;;;;;;;6.93;100.00;100245.59;5042952;28;20034;-64
2024/04/02 04:35:48;;;;;;;11.27;3.13;;;;;;;6.96;100.00;100244.72;5042474;28;20029;-65
2024/04/02 04:38:14;;;;;;;11.48;3.08;;;;;;;6.89;100.00;100250.81;5042319;28;20037;-65
2024/04/02 04:40:40;;;;;;;12.40;3.00;;;;;;;6.89;100.00;100246.44;5042270;28;20033;-77
2024/04/02 04:43:06;;;;;;;14.45;3.33;;;;;;;6.91;100.00;100252.56;5040923;28;20030;-77
2024/04/02 04:45:32;;;;;;;11.35;3.10;;;;;;;6.93;100.00;100256.13;5044374;28;20084;-64
2024/04/02 04:47:57;;;;;;;16.13;3.40;;;;;;;6.89;100.00;100253.44;5041077;28;20026;-65
2024/04/02 04:50:23;;;;;;;11.95;3.05;;;;;;;6.81;100.00;100258.59;5043112;28;20388;-65
2024/04/02 04:52:48;;;;;;;12.73;3.30;;;;;;;6.75;100.00;100263.81;5042240;28;20025;-64
2024/04/02 04:55:14;;;;;;;13.85;3.10;;;;;;;6.87;100.00;100263.91;5041591;28;20038;-64
2024/04/02 04:57:39;;;;;;;10.50;2.90;;;;;;;6.90;100.00;100268.34;5043922;28;20064;-64
2024/04/02 05:00:05;;;;;;;13.13;3.20;;;;;;;6.80;100.00;100273.50;5040487;28;20029;-64
2024/04/02 05:02:30;;;;;;;15.93;3.38;;;;;;;6.75;100.00;100269.94;5036183;28;20100;-64
2024/04/02 05:04:56;;;;;;;15.10;3.13;;;;;;;6.76;100.00;100265.56;5043516;28;20372;-64
2024/04/02 05:07:23;;;;;;;13.70;3.35;;;;;;;6.77;100.00;100278.72;5041638;28;20507;-64
2024/04/02 05:09:49;;;;;;;14.32;3.30;;;;;;;6.79;100.00;100273.50;5042245;28;20029;-64
2024/04/02 05:12:14;;;;;;;14.05;3.10;;;;;;;6.84;100.00;100273.53;5043531;28;20036;-67
2024/04/02 05:14:40;;;;;;;13.73;3.30;;;;;;;6.85;100.00;100278.81;5044887;28;20029;-65
2024/04/02 05:17:05;;;;;;;15.45;3.40;;;;;;;6.75;100.00;100279.56;5047658;28;20041;-71
2024/04/02 05:19:30;;;;;;;14.90;3.25;;;;;;;6.71;100.00;100277.75;5044375;28;20025;-64
2024/04/02 05:21:56;;;;;;;14.05;3.20;;;;;;;6.73;100.00;100282.19;5046760;28;20033;-64
2024/04/02 05:24:21;;;;;;;10.18;2.90;;;;;;;6.75;100.00;100288.31;5045226;28;20033;-66
2024/04/02 05:26:46;;;;;;;12.60;3.20;;;;;;;6.71;100.00;100293.53;5045970;28;20033;-67
2024/04/02 05:29:12;;;;;;;15.25;3.47;;;;;;;6.73;100.00;100294.44;5046487;28;20434;-65
2024/04/02 05:31:37;;;;;;;12.75;3.08;;;;;;;6.80;100.00;100291.00;5044100;28;20040;-66
2024/04/02 05:34:03;;;;;;;13.90;3.00;;;;;;;6.83;100.00;100296.31;5047462;28;20025;-68
2024/04/02 05:36:28;;;;;;;13.32;3.10;;;;;;;6.85;100.00;100299.81;5044337;28;20029;-65
2024/04/02 05:38:54;;;;;;;17.75;3.50;;;;;;;6.83;100.00;100298.94;5046362;28;20361;-65
2024/04/02 05:41:19;;;;;;;13.57;3.28;;;;;;;6.83;100.00;100304.19;5045510;28;20032;-65
2024/04/02 05:43:45;;;;;;;17.02;3.58;;;;;;;6.91;100.00;100301.63;5043786;28;20120;-66
2024/04/02 05:46:10;;;;;;;13.68;3.17;;;;;;;6.92;100.00;100309.53;5046673;28;20464;-65
2024/04/02 05:48:35;;;;;;;14.73;3.22;;;;;;;6.89;100.00;100308.63;5043610;28;20032;-65
2024/04/02 05:51:01;;;;;;;16.15;3.30;;;;;;;6.93;100.00;100307.78;5039407;28;20064;-64
2024/04/02 05:53:26;;;;;;;16.30;3.30;;;;;;;6.96;100.00;100315.69;5046451;28;20036;-66
2024/04/02 05:55:51;;;;;;;15.50;3.20;;;;;;;7.04;100.00;100324.53;5044502;28;20034;-65
2024/04/02 05:58:17;;;;;;;17.70;3.30;;;;;;;7.21;100.00;100326.44;5044906;28;20065;-65
2024/04/02 06:00:42;;;;;;;14.38;3.17;;;;;;;7.35;100.00;100323.97;5046106;28;20043;-65
2024/04/02 06:03:07;;;;;;;15.38;3.00;;;;;;;7.42;100.00;100344.19;5043219;28;20119;-64
2024/04/02 06:05:33;;;;;;;14.52;2.97;;;;;;;7.44;100.00;100334.56;5046712;28;20037;-66
2024/04/02 06:07:58;;;;;;;18.30;3.83;;;;;;;7.47;100.00;100343.38;5043999;28;20041;-67
2024/04/02 06:10:26;;;;;;;14.57;3.05;;;;;;;7.53;100.00;100350.44;5046128;28;20038;-74
2024/04/02 06:12:51;;;;;;;14.65;2.95;;;;;;;7.61;100.00;100338.22;5044696;28;20029;-73
2024/04/02 06:15:17;;;;;;;14.82;3.00;;;;;;;7.62;100.00;100347.88;5045771;28;20084;-77
2024/04/02 06:17:42;;;;;;;15.93;3.08;;;;;;;7.72;100.00;100345.31;5046448;28;20025;-76
2024/04/02 06:20:08;;;;;;;19.70;3.65;;;;;;;7.74;100.00;100355.00;5043865;28;20029;-76
2024/04/02 06:22:35;;;;;;;15.63;3.10;;;;;;;7.76;100.00;100352.38;5046922;28;20055;-76
2024/04/02 06:25:01;;;;;;;17.67;3.08;;;;;;;7.82;100.00;100360.31;5042902;28;20079;-78
2024/04/02 06:27:27;;;;;;;17.27;3.17;;;;;;;7.92;100.00;100349.00;5046843;28;20111;-68
2024/04/02 06:29:52;;;;;;;18.75;3.55;;;;;;;8.01;100.00;100348.19;5044267;28;20103;-65
2024/04/02 06:32:18;;;;;;;16.98;3.38;;;;;;;8.03;100.00;100352.56;5044514;28;20064;-67
2024/04/02 06:34:43;;;;;;;16.55;3.30;;;;;;;8.06;100.00;100369.28;5045374;28;20017;-75
2024/04/02 06:37:09;;;;;;;17.17;3.38;;;;;;;8.09;100.00;100361.41;5043299;28;20467;-78
2024/04/02 06:39:34;;;;;;;19.20;3.72;;;;;;;8.13;100.00;100364.06;5046118;28;20025;-77
2024/04/02 06:41:59;;;;;;;18.75;3.67;;;;;;;8.18;100.00;100358.81;5043060;28;20076;-77
2024/04/02 06:44:25;;;;;;;18.77;3.90;;;;;;;8.22;100.00;100352.72;5045245;28;20030;-66
2024/04/02 06:46:50;;;;;;;17.35;3.42;;;;;;;8.27;100.00;100361.53;5044232;28;20476;-64
2024/04/02 06:49:15;;;;;;;19.60;3.63;;;;;;;8.34;100.00;100360.69;5043856;28;20021;-64
2024/04/02 06:51:41;;;;;;;17.70;3.45;;;;;;;8.34;100.00;100362.44;5045302;28;20395;-69
2024/04/02 06:54:06;;;;;;;19.17;4.10;;;;;;;8.42;100.00;100365.09;5041360;28;20108;-67
2024/04/02 06:56:31;;;;;;;17.15;3.70;;;;;;;8.43;100.00;100359.88;5038357;28;20116;-65
2024/04/02 06:58:57;;;;;;;18.52;3.70;;;;;;;8.44;100.00;100364.28;5045044;28;20036;-64
2024/04/02 07:01:22;;;;;;;18.83;3.65;;;;;;;8.45;100.00;100362.53;5042420;28;20017;-65
2024/04/02 07:03:48;;;;;;;18.48;3.58;;;;;;;8.47;100.00;100363.41;5043501;28;20059;-64
2024/04/02 07:06:13;;;;;;;18.05;3.55;;;;;;;8.48;100.00;100366.06;5044551;28;20393;-64
2024/04/02 07:08:40;;;;;;;20.52;3.80;;;;;;;8.48;100.00;100373.09;5042592;28;20543;-65
2024/04/02 07:11:06;;;;;;;19.55;3.88;;;;;;;8.53;100.00;100359.06;5045719;28;20041;-64
2024/04/02 07:13:32;;;;;;;20.40;3.90;;;;;;;8.62;100.00;100383.69;5041962;28;20041;-64
2024/04/02 07:15:58;;;;;;;19.33;3.60;;;;;;;8.72;100.00;100369.69;5045038;28;20100;-65
2024/04/02 07:18:24;;;;;;;18.55;3.70;;;;;;;8.84;100.00;100384.66;5041154;28;20025;-68
2024/04/02 07:21:03;;;;;;;18.63;3.83;;;;;;;8.99;100.00;100389.13;5043527;28;20033;-66
2024/04/02 07:23:28;;;;;;;17.98;3.53;;;;;;;9.02;100.00;100370.69;5044641;28;20043;-67
2024/04/02 07:25:54;;;;;;;18.35;3.67;;;;;;;9.00;100.00;100378.59;5043205;28;20434;-68
2024/04/02 07:28:20;;;;;;;17.58;3.40;;;;;;;8.94;100.00;100370.66;5025823;28;20045;-65
2024/04/02 07:30:46;;;;;;;18.65;3.60;;;;;;;8.95;100.00;100376.81;5043673;28;20128;-65
2024/04/02 07:33:12;;;;;;;19.02;3.45;;;;;;;8.94;100.00;100375.94;5042903;28;20070;-66
2024/04/02 07:35:38;;;;;;;19.65;3.53;;;;;;;8.96;100.00;100387.34;5045166;28;20032;-65
2024/04/02 07:38:04;;;;;;;16.58;3.40;;;;;;;9.02;100.00;100392.66;5041665;28;20026;-66
2024/04/02 07:40:30;;;;;;;19.20;3.97;;;;;;;9.08;100.00;100382.09;5044544;28;20087;-67
2024/04/02 07:42:55;;;;;;;18.92;3.28;;;;;;;9.18;100.00;100377.75;5042222;28;20085;-65
2024/04/02 07:45:21;;;;;;;18.33;3.50;;;;;;;9.30;100.00;100384.81;5043761;28;20430;-66
2024/04/02 07:47:46;;;;;;;18.25;3.60;;;;;;;9.40;100.00;100381.31;5043811;28;20075;-64
2024/04/02 07:50:12;;;;;;;20.65;3.78;;;;;;;9.43;100.00;100383.09;5041978;28;20030;-64
2024/04/02 07:52:37;;;;;;;19.55;3.33;;;;;;;9.40;100.00;100386.59;5044838;28;20479;-64
2024/04/02 07:55:03;;;;;;;18.40;3.53;;;;;;;9.35;100.00;100388.34;5041089;28;20100;-64
2024/04/02 07:57:28;;;;;;;17.88;3.30;;;;;;;9.31;100.00;100391.00;5044068;28;20040;-65
2024/04/02 07:59:53;;;;;;;18.48;3.35;;;;;;;9.30;100.00;100391.84;5042694;28;20487;-64
2024/04/02 08:02:19;;;;;;;19.48;3.30;;;;;;;9.25;100.00;100395.34;5042482;28;20042;-64
2024/04/02 08:04:49;;;;;;;18.65;3.55;;;;;;;9.24;100.00;100393.59;5043645;28;20072;-75
2024/04/02 08:07:17;;;;;;;18.75;3.50;;;;;;;9.26;100.00;100409.41;5042165;28;20077;-65
2024/04/02 08:09:42;;;;;;;17.95;3.40;;;;;;;9.24;100.00;100398.00;5043704;28;20028;-64
2024/04/02 08:12:08;;;;;;;17.98;3.33;;;;;;;9.36;100.00;100389.22;5041353;28;20117;-71
2024/04/02 08:14:33;;;;;;;17.40;3.30;;;;;;;9.51;100.00;100393.63;5044602;28;20071;-77
2024/04/02 08:16:59;;;;;;;20.50;3.53;;;;;;;9.59;100.00;100394.53;5039611;28;20029;-77
2024/04/02 08:19:24;;;;;;;18.45;3.40;;;;;;;9.54;100.00;100410.38;5040013;28;20040;-78
2024/04/02 08:21:50;;;;;;;16.23;3.13;;;;;;;9.51;100.00;100410.38;5037457;28;20120;-77
2024/04/02 08:24:15;;;;;;;18.52;3.30;;;;;;;9.45;100.00;100401.56;5043548;28;20091;-76
2024/04/02 08:26:41;;;;;;;18.17;3.40;;;;;;;9.51;100.00;100412.09;5042853;28;20443;-75
2024/04/02 08:29:06;;;;;;;19.33;3.67;;;;;;;9.49;100.00;100412.09;5041875;28;20069;-77
2024/04/02 08:31:31;;;;;;;18.90;3.45;;;;;;;9.57;100.00;100414.78;5042194;28;20063;-74
2024/04/02 08:33:57;;;;;;;17.50;3.33;;;;;;;9.59;100.00;100424.44;5041607;28;20092;-75
2024/04/02 08:36:22;;;;;;;15.95;3.13;;;;;;;9.61;100.00;100427.13;5043473;28;20029;-78
2024/04/02 08:38:47;;;;;;;14.88;2.80;;;;;;;9.60;100.00;100422.69;5040837;28;20029;-65
2024/04/02 08:41:13;;;;;;;17.83;3.40;;;;;;;9.57;100.00;100427.97;5036960;28;20030;-86
2024/04/02 08:43:43;;;;;;;19.55;3.50;;;;;;;9.58;100.00;100433.25;5043579;28;20040;-73
2024/04/02 08:46:10;;;;;;;18.48;3.58;;;;;;;9.65;100.00;100431.50;5041338;28;20033;-66
2024/04/02 08:48:35;;;;;;;17.25;3.40;;;;;;;9.84;100.00;100418.31;5047091;28;20034;-68
2024/04/02 08:51:04;;;;;;;16.38;3.00;;;;;;;10.28;100.00;100426.25;5045781;28;20091;-67
2024/04/02 08:53:33;;;;;;;18.25;3.30;;;;;;;10.50;100.00;100435.91;5046074;28;20392;-66
2024/04/02 08:55:59;;;;;;;15.40;3.10;;;;;;;10.50;100.00;100431.53;5046226;28;20103;-71
2024/04/02 08:58:25;;;;;;;17.80;3.28;;;;;;;10.54;100.00;100429.75;5046692;28;20483;-66
2024/04/02 09:00:51;;;;;;;17.15;3.15;;;;;;;10.70;100.00;100431.47;5045045;28;20034;-69
2024/04/02 09:03:16;;;;;;;19.60;3.28;;;;;;;10.88;100.00;100429.66;5047816;28;20049;-66
2024/04/02 09:05:42;;;;;;;17.55;3.38;;;;;;;10.98;100.00;100434.91;5044623;28;20053;-70
2024/04/02 09:08:09;;;;;;;13.80;3.00;;;;;;;10.99;100.00;100435.78;5047077;28;20021;-68
2024/04/02 09:10:35;;;;;;;16.85;2.85;;;;;;;10.88;100.00;100449.06;5045412;28;20079;-70
2024/04/02 09:13:00;;;;;;;16.52;2.92;;;;;;;10.66;100.00;100436.75;5045160;28;20025;-71
2024/04/02 09:15:26;;;;;;;18.88;3.20;;;;;;;10.56;100.00;100431.50;5045758;28;20108;-66
2024/04/02 09:17:51;;;;;;;15.40;3.22;;;;;;;10.57;100.00;100440.31;5047040;28;20052;-65
2024/04/02 09:20:16;;;;;;;12.85;3.00;;;;;;;10.65;100.00;100446.47;5044417;28;20045;-65
2024/04/02 09:22:42;;;;;;;17.23;3.25;;;;;;;10.77;100.00;100440.28;5047255;28;20061;-66
2024/04/02 09:25:09;;;;;;;14.50;2.90;;;;;;;10.82;100.00;100438.50;5044474;28;20033;-66
2024/04/02 09:27:35;;;;;;;14.93;2.83;;;;;;;10.83;100.00;100437.59;5046865;28;20522;-70
2024/04/02 09:30:00;;;;;;;16.33;3.03;;;;;;;10.73;100.00;100436.78;5045030;28;20041;-68
2024/04/02 09:32:28;;;;;;;14.13;2.85;;;;;;;10.67;100.00;100433.25;5044399;28;20040;-69
2024/04/02 09:34:56;;;;;;;15.95;2.85;;;;;;;10.54;100.00;100448.25;5045965;28;20035;-68
2024/04/02 09:37:21;;;;;;;14.95;2.90;;;;;;;10.33;100.00;100450.00;5043935;28;20120;-66
2024/04/02 09:39:48;;;;;;;15.10;2.65;;;;;;;9.54;100.00;100467.56;5047019;28;20439;-67
2024/04/02 09:42:14;;;;;;;16.90;3.28;;;;;;;8.93;100.00;100482.25;5042361;28;20033;-69
2024/04/02 09:44:41;;;;;;;15.57;3.10;;;;;;;8.80;100.00;100489.22;5039690;28;20053;-67
2024/04/02 09:47:06;;;;;;;17.60;3.38;;;;;;;8.58;100.00;100492.56;5046868;28;20029;-66
2024/04/02 09:49:35;;;;;;;17.23;3.53;;;;;;;8.55;100.00;100498.72;5043559;28;20041;-67
2024/04/02 09:52:03;;;;;;;15.65;3.33;;;;;;;8.51;100.00;100503.06;5038195;28;20045;-64
2024/04/02 09:54:30;;;;;;;18.02;3.58;;;;;;;8.51;100.00;100504.81;5046712;28;20025;-74
2024/04/02 09:56:59;;;;;;;18.60;3.60;;;;;;;8.37;100.00;100496.78;5044001;28;20040;-65
2024/04/02 09:59:25;;;;;;;19.67;4.18;;;;;;;8.31;100.00;100505.50;5044970;28;20045;-65
2024/04/02 10:01:51;;;;;;;18.65;4.20;;;;;;;8.28;100.00;100505.47;5044666;28;20124;-66
2024/04/02 10:04:20;;;;;;;19.05;4.10;;;;;;;8.38;100.00;100511.72;5043757;28;20025;-65
2024/04/02 10:06:46;;;;;;;16.88;3.88;;;;;;;8.41;100.00;100514.38;5027771;28;20055;-65
2024/04/02 10:09:14;;;;;;;19.70;3.95;;;;;;;8.44;100.00;100521.41;5040848;28;20025;-65
2024/04/02 10:11:40;;;;;;;21.27;4.45;;;;;;;8.52;100.00;100514.50;5045977;28;20035;-79
2024/04/02 10:14:08;;;;;;;18.42;4.05;;;;;;;8.57;100.00;100512.78;5043211;28;20492;-77
2024/04/02 10:16:34;;;;;;;20.85;4.00;;;;;;;8.60;100.00;100512.78;5046639;28;20048;-74
2024/04/02 10:19:01;;;;;;;21.05;4.00;;;;;;;8.58;100.00;100527.72;5043356;28;20030;-78
2024/04/02 10:21:27;;;;;;;20.77;4.07;;;;;;;8.54;100.00;100518.03;5045750;28;20031;-66
2024/04/02 10:23:54;;;;;;;19.45;4.18;;;;;;;8.47;100.00;100522.34;5045116;28;20033;-72
2024/04/02 10:26:20;;;;;;;19.00;4.00;;;;;;;8.49;100.00;100519.72;5045504;28;20037;-77
2024/04/02 10:28:46;;;;;;;18.02;4.28;;;;;;;8.40;100.00;100523.13;5045371;28;20105;-77
2024/04/02 10:31:17;;;;;;;19.80;4.22;;;;;;;8.42;100.00;100529.31;5043023;28;20017;-78
2024/04/02 10:33:43;;;;;;;18.65;4.70;;;;;;;8.34;100.00;100531.00;5045978;28;20101;-77
2024/04/02 10:36:11;;;;;;;20.55;4.70;;;;;;;8.31;100.00;100529.19;5043223;28;20109;-66
2024/04/02 10:38:36;;;;;;;19.50;4.10;;;;;;;8.27;100.00;100540.59;5046007;28;20122;-65
2024/04/02 10:41:03;;;;;;;17.98;4.00;;;;;;;8.19;100.00;100537.88;5042671;28;20060;-65
2024/04/02 10:43:28;;;;;;;17.48;4.25;;;;;;;8.16;100.00;100531.72;5045905;28;20356;-70
2024/04/02 10:45:55;;;;;;;20.00;4.22;;;;;;;8.14;100.00;100539.59;5043715;28;20031;-69
2024/04/02 10:48:20;;;;;;;16.85;3.90;;;;;;;7.98;100.00;100532.41;5043390;28;20026;-68
2024/04/02 10:50:46;;;;;;;20.08;4.00;;;;;;;7.92;100.00;100537.63;5043315;28;20033;-65
2024/04/02 10:53:11;;;;;;;17.38;3.80;;;;;;;7.91;100.00;100531.47;5043721;28;20043;-65
2024/04/02 10:55:37;;;;;;;18.67;3.63;;;;;;;7.79;100.00;100542.75;5045556;28;20112;-71
2024/04/02 10:58:04;;;;;;;19.08;3.67;;;;;;;7.85;100.00;100557.75;5042408;28;20057;-69
2024/04/02 11:00:30;;;;;;;17.27;3.50;;;;;;;7.78;100.00;100542.75;5045720;28;20078;-70
2024/04/02 11:02:55;;;;;;;18.05;3.55;;;;;;;7.76;100.00;100541.84;5042839;28;20136;-72
2024/04/02 11:05:21;;;;;;;16.35;3.20;;;;;;;7.82;100.00;100547.16;5044297;28;20032;-72
2024/04/02 11:07:47;;;;;;;18.20;3.17;;;;;;;7.78;100.00;100541.00;5044205;28;20068;-66
2024/04/02 11:10:13;;;;;;;13.70;2.83;;;;;;;7.71;100.00;100548.81;5042732;28;20044;-66
2024/04/02 11:12:39;;;;;;;18.42;3.30;;;;;;;7.76;100.00;100545.38;5045082;28;20045;-72